sensor_id;sensor_type;location;lat;lon;timestamp;P1;durP1;ratioP1;P2;durP2;ratioP2
8187;SDS011;4135;49.184;9.722;2022-12-18T00:01:35;16.63;;;10.30;;
8187;SDS011;4135;49.184;9.722;2022-12-18T00:04:06;17.83;;;11.38;;
8187;SDS011;4135;49.184;9.722;2022-12-18T00:06:37;15.20;;;9.30;;
8187;SDS011;4135;49.184;9.722;2022-12-18T00:09:06;16.63;;;10.48;;
8187;SDS011;4135;49.184;9.722;2022-12-18T00:11:36;21.05;;;11.02;;
8187;SDS011;4135;49.184;9.722;2022-12-18T00:14:05;14.10;;;10.20;;
8187;SDS011;4135;49.184;9.722;2022-12-18T00:16:35;16.40;;;10.45;;
8187;SDS011;4135;49.184;9.722;2022-12-18T00:19:05;16.95;;;9.95;;
8187;SDS011;4135;49.184;9.722;2022-12-18T00:21:36;17.83;;;10.65;;
8187;SDS011;4135;49.184;9.722;2022-12-18T00:24:06;18.77;;;11.43;;
8187;SDS011;4135;49.184;9.722;2022-12-18T00:26:36;16.23;;;10.80;;
8187;SDS011;4135;49.184;9.722;2022-12-18T00:29:08;20.13;;;10.07;;
8187;SDS011;4135;49.184;9.722;2022-12-18T00:31:42;17.02;;;10.75;;
8187;SDS011;4135;49.184;9.722;2022-12-18T00:34:12;19.33;;;11.00;;
8187;SDS011;4135;49.184;9.722;2022-12-18T00:36:42;16.33;;;10.27;;
8187;SDS011;4135;49.184;9.722;2022-12-18T00:39:12;16.80;;;10.70;;
8187;SDS011;4135;49.184;9.722;2022-12-18T00:41:41;17.23;;;11.27;;
8187;SDS011;4135;49.184;9.722;2022-12-18T00:44:29;19.52;;;11.25;;
8187;SDS011;4135;49.184;9.722;2022-12-18T00:46:59;17.35;;;10.77;;
8187;SDS011;4135;49.184;9.722;2022-12-18T00:49:28;18.13;;;10.77;;
8187;SDS011;4135;49.184;9.722;2022-12-18T00:51:58;16.38;;;10.82;;
8187;SDS011;4135;49.184;9.722;2022-12-18T00:54:27;17.15;;;11.00;;
8187;SDS011;4135;49.184;9.722;2022-12-18T00:56:57;17.65;;;9.98;;
8187;SDS011;4135;49.184;9.722;2022-12-18T00:59:26;17.40;;;11.07;;
8187;SDS011;4135;49.184;9.722;2022-12-18T01:01:56;17.98;;;10.73;;
8187;SDS011;4135;49.184;9.722;2022-12-18T01:04:25;15.68;;;10.32;;
8187;SDS011;4135;49.184;9.722;2022-12-18T01:06:55;14.55;;;10.35;;
8187;SDS011;4135;49.184;9.722;2022-12-18T01:09:24;16.95;;;10.05;;
8187;SDS011;4135;49.184;9.722;2022-12-18T01:11:55;18.25;;;10.25;;
8187;SDS011;4135;49.184;9.722;2022-12-18T01:14:24;19.73;;;10.52;;
8187;SDS011;4135;49.184;9.722;2022-12-18T01:16:54;20.08;;;10.32;;
8187;SDS011;4135;49.184;9.722;2022-12-18T01:19:23;17.02;;;10.07;;
8187;SDS011;4135;49.184;9.722;2022-12-18T01:21:53;17.75;;;11.20;;
8187;SDS011;4135;49.184;9.722;2022-12-18T01:24:22;18.13;;;9.85;;
8187;SDS011;4135;49.184;9.722;2022-12-18T01:26:52;15.63;;;10.57;;
8187;SDS011;4135;49.184;9.722;2022-12-18T01:29:21;16.88;;;10.32;;
8187;SDS011;4135;49.184;9.722;2022-12-18T01:31:54;15.90;;;10.23;;
8187;SDS011;4135;49.184;9.722;2022-12-18T01:34:24;16.90;;;9.93;;
8187;SDS011;4135;49.184;9.722;2022-12-18T01:36:54;15.68;;;10.75;;
8187;SDS011;4135;49.184;9.722;2022-12-18T01:39:23;16.17;;;8.95;;
8187;SDS011;4135;49.184;9.722;2022-12-18T01:41:53;18.92;;;11.13;;
8187;SDS011;4135;49.184;9.722;2022-12-18T01:52:58;20.35;;;11.60;;
8187;SDS011;4135;49.184;9.722;2022-12-18T01:55:39;20.20;;;11.85;;
8187;SDS011;4135;49.184;9.722;2022-12-18T01:58:15;21.30;;;11.52;;
8187;SDS011;4135;49.184;9.722;2022-12-18T02:00:45;18.85;;;11.77;;
8187;SDS011;4135;49.184;9.722;2022-12-18T02:03:15;18.15;;;10.95;;
8187;SDS011;4135;49.184;9.722;2022-12-18T02:08:40;19.20;;;11.30;;
8187;SDS011;4135;49.184;9.722;2022-12-18T02:17:23;22.75;;;10.95;;
8187;SDS011;4135;49.184;9.722;2022-12-18T02:23:50;21.40;;;12.82;;
8187;SDS011;4135;49.184;9.722;2022-12-18T02:28:42;19.58;;;11.80;;
8187;SDS011;4135;49.184;9.722;2022-12-18T02:31:26;17.13;;;11.90;;
8187;SDS011;4135;49.184;9.722;2022-12-18T02:34:00;20.40;;;12.07;;
8187;SDS011;4135;49.184;9.722;2022-12-18T02:36:33;18.95;;;11.30;;
8187;SDS011;4135;49.184;9.722;2022-12-18T02:39:05;18.90;;;11.50;;
8187;SDS011;4135;49.184;9.722;2022-12-18T02:41:38;19.10;;;11.35;;
8187;SDS011;4135;49.184;9.722;2022-12-18T02:44:09;16.98;;;10.35;;
8187;SDS011;4135;49.184;9.722;2022-12-18T02:46:42;21.38;;;11.63;;
8187;SDS011;4135;49.184;9.722;2022-12-18T02:57:54;20.20;;;11.93;;
8187;SDS011;4135;49.184;9.722;2022-12-18T03:00:35;22.77;;;11.30;;
8187;SDS011;4135;49.184;9.722;2022-12-18T03:05:44;18.88;;;12.32;;
8187;SDS011;4135;49.184;9.722;2022-12-18T03:08:23;21.35;;;11.85;;
8187;SDS011;4135;49.184;9.722;2022-12-18T03:11:03;16.55;;;12.02;;
8187;SDS011;4135;49.184;9.722;2022-12-18T03:16:15;21.10;;;12.05;;
8187;SDS011;4135;49.184;9.722;2022-12-18T03:18:52;16.35;;;10.68;;
8187;SDS011;4135;49.184;9.722;2022-12-18T03:21:32;18.88;;;12.15;;
8187;SDS011;4135;49.184;9.722;2022-12-18T03:24:08;18.80;;;11.27;;
8187;SDS011;4135;49.184;9.722;2022-12-18T03:26:40;24.17;;;12.98;;
8187;SDS011;4135;49.184;9.722;2022-12-18T03:29:13;16.20;;;11.07;;
8187;SDS011;4135;49.184;9.722;2022-12-18T03:31:49;19.23;;;11.48;;
8187;SDS011;4135;49.184;9.722;2022-12-18T03:34:24;18.40;;;11.02;;
8187;SDS011;4135;49.184;9.722;2022-12-18T03:36:58;18.02;;;11.63;;
8187;SDS011;4135;49.184;9.722;2022-12-18T03:39:28;22.17;;;11.63;;
8187;SDS011;4135;49.184;9.722;2022-12-18T03:42:07;20.13;;;11.63;;
8187;SDS011;4135;49.184;9.722;2022-12-18T03:47:53;21.27;;;12.80;;
8187;SDS011;4135;49.184;9.722;2022-12-18T03:55:46;21.80;;;12.75;;
8187;SDS011;4135;49.184;9.722;2022-12-18T03:58:18;19.40;;;10.85;;
8187;SDS011;4135;49.184;9.722;2022-12-18T04:00:52;17.42;;;10.50;;
8187;SDS011;4135;49.184;9.722;2022-12-18T04:03:24;19.30;;;10.75;;
8187;SDS011;4135;49.184;9.722;2022-12-18T04:05:57;20.70;;;11.35;;
8187;SDS011;4135;49.184;9.722;2022-12-18T04:08:28;14.70;;;9.02;;
8187;SDS011;4135;49.184;9.722;2022-12-18T04:10:59;18.73;;;11.13;;
8187;SDS011;4135;49.184;9.722;2022-12-18T04:13:29;14.18;;;9.35;;
8187;SDS011;4135;49.184;9.722;2022-12-18T04:16:04;15.13;;;10.75;;
8187;SDS011;4135;49.184;9.722;2022-12-18T04:18:34;17.67;;;11.00;;
8187;SDS011;4135;49.184;9.722;2022-12-18T04:21:03;17.67;;;10.77;;
8187;SDS011;4135;49.184;9.722;2022-12-18T04:23:33;17.30;;;10.15;;
8187;SDS011;4135;49.184;9.722;2022-12-18T04:26:03;13.52;;;9.60;;
8187;SDS011;4135;49.184;9.722;2022-12-18T04:28:32;18.08;;;10.40;;
8187;SDS011;4135;49.184;9.722;2022-12-18T04:31:02;15.32;;;9.68;;
8187;SDS011;4135;49.184;9.722;2022-12-18T04:33:32;17.80;;;10.18;;
8187;SDS011;4135;49.184;9.722;2022-12-18T04:36:01;14.10;;;9.82;;
8187;SDS011;4135;49.184;9.722;2022-12-18T04:38:31;14.82;;;9.60;;
8187;SDS011;4135;49.184;9.722;2022-12-18T04:41:00;17.35;;;9.63;;
8187;SDS011;4135;49.184;9.722;2022-12-18T04:43:30;16.83;;;11.07;;
8187;SDS011;4135;49.184;9.722;2022-12-18T04:46:02;17.90;;;10.35;;
8187;SDS011;4135;49.184;9.722;2022-12-18T04:48:36;21.00;;;10.50;;
8187;SDS011;4135;49.184;9.722;2022-12-18T04:51:06;15.00;;;10.45;;
8187;SDS011;4135;49.184;9.722;2022-12-18T04:53:36;20.17;;;11.77;;
8187;SDS011;4135;49.184;9.722;2022-12-18T04:56:10;21.08;;;11.52;;
8187;SDS011;4135;49.184;9.722;2022-12-18T04:58:41;15.68;;;10.90;;
8187;SDS011;4135;49.184;9.722;2022-12-18T05:01:13;19.33;;;11.48;;
8187;SDS011;4135;49.184;9.722;2022-12-18T05:03:44;14.95;;;10.35;;
8187;SDS011;4135;49.184;9.722;2022-12-18T05:06:14;23.85;;;11.05;;
8187;SDS011;4135;49.184;9.722;2022-12-18T05:08:44;21.23;;;11.52;;
8187;SDS011;4135;49.184;9.722;2022-12-18T05:11:14;14.73;;;9.13;;
8187;SDS011;4135;49.184;9.722;2022-12-18T05:13:44;19.02;;;9.63;;
8187;SDS011;4135;49.184;9.722;2022-12-18T05:16:14;17.92;;;9.85;;
8187;SDS011;4135;49.184;9.722;2022-12-18T05:18:44;16.35;;;10.48;;
8187;SDS011;4135;49.184;9.722;2022-12-18T05:21:13;16.63;;;10.65;;
8187;SDS011;4135;49.184;9.722;2022-12-18T05:23:43;15.18;;;10.18;;
8187;SDS011;4135;49.184;9.722;2022-12-18T05:26:17;16.45;;;10.43;;
8187;SDS011;4135;49.184;9.722;2022-12-18T05:28:47;21.08;;;11.60;;
8187;SDS011;4135;49.184;9.722;2022-12-18T05:31:16;17.10;;;11.88;;
8187;SDS011;4135;49.184;9.722;2022-12-18T05:33:46;14.93;;;10.10;;
8187;SDS011;4135;49.184;9.722;2022-12-18T05:36:16;16.15;;;11.10;;
8187;SDS011;4135;49.184;9.722;2022-12-18T05:38:45;17.80;;;10.88;;
8187;SDS011;4135;49.184;9.722;2022-12-18T05:41:15;13.88;;;9.90;;
8187;SDS011;4135;49.184;9.722;2022-12-18T05:43:45;12.35;;;9.60;;
8187;SDS011;4135;49.184;9.722;2022-12-18T05:46:15;15.32;;;10.75;;
8187;SDS011;4135;49.184;9.722;2022-12-18T05:48:46;21.02;;;11.82;;
8187;SDS011;4135;49.184;9.722;2022-12-18T05:51:18;20.23;;;11.65;;
8187;SDS011;4135;49.184;9.722;2022-12-18T05:53:49;18.00;;;11.15;;
8187;SDS011;4135;49.184;9.722;2022-12-18T05:56:19;17.58;;;11.18;;
8187;SDS011;4135;49.184;9.722;2022-12-18T05:58:51;15.35;;;10.10;;
8187;SDS011;4135;49.184;9.722;2022-12-18T06:01:23;19.83;;;11.20;;
8187;SDS011;4135;49.184;9.722;2022-12-18T06:03:55;17.45;;;10.82;;
8187;SDS011;4135;49.184;9.722;2022-12-18T06:06:25;15.05;;;10.73;;
8187;SDS011;4135;49.184;9.722;2022-12-18T06:08:56;18.88;;;10.73;;
8187;SDS011;4135;49.184;9.722;2022-12-18T06:11:26;20.45;;;11.93;;
8187;SDS011;4135;49.184;9.722;2022-12-18T06:13:56;20.92;;;11.73;;
8187;SDS011;4135;49.184;9.722;2022-12-18T06:16:26;16.13;;;11.43;;
8187;SDS011;4135;49.184;9.722;2022-12-18T06:18:59;18.38;;;10.70;;
8187;SDS011;4135;49.184;9.722;2022-12-18T06:21:31;15.43;;;10.45;;
8187;SDS011;4135;49.184;9.722;2022-12-18T06:24:01;16.00;;;10.95;;
8187;SDS011;4135;49.184;9.722;2022-12-18T06:26:30;21.00;;;11.98;;
8187;SDS011;4135;49.184;9.722;2022-12-18T06:29:00;20.02;;;11.20;;
8187;SDS011;4135;49.184;9.722;2022-12-18T06:31:29;19.88;;;11.95;;
8187;SDS011;4135;49.184;9.722;2022-12-18T06:34:01;19.02;;;11.70;;
8187;SDS011;4135;49.184;9.722;2022-12-18T06:36:31;22.23;;;12.60;;
8187;SDS011;4135;49.184;9.722;2022-12-18T06:39:01;21.90;;;12.23;;
8187;SDS011;4135;49.184;9.722;2022-12-18T06:41:30;22.38;;;12.07;;
8187;SDS011;4135;49.184;9.722;2022-12-18T06:44:00;18.63;;;11.73;;
8187;SDS011;4135;49.184;9.722;2022-12-18T06:46:29;20.50;;;12.48;;
8187;SDS011;4135;49.184;9.722;2022-12-18T06:48:59;16.70;;;12.18;;
8187;SDS011;4135;49.184;9.722;2022-12-18T06:51:28;23.00;;;11.82;;
8187;SDS011;4135;49.184;9.722;2022-12-18T06:53:58;19.60;;;13.23;;
8187;SDS011;4135;49.184;9.722;2022-12-18T06:56:28;17.40;;;11.00;;
8187;SDS011;4135;49.184;9.722;2022-12-18T06:58:57;23.30;;;12.55;;
8187;SDS011;4135;49.184;9.722;2022-12-18T07:01:27;19.95;;;12.10;;
8187;SDS011;4135;49.184;9.722;2022-12-18T07:03:57;17.45;;;11.73;;
8187;SDS011;4135;49.184;9.722;2022-12-18T07:06:26;23.02;;;12.02;;
8187;SDS011;4135;49.184;9.722;2022-12-18T07:08:56;21.52;;;11.98;;
8187;SDS011;4135;49.184;9.722;2022-12-18T07:11:25;19.88;;;12.10;;
8187;SDS011;4135;49.184;9.722;2022-12-18T07:13:55;22.90;;;13.48;;
8187;SDS011;4135;49.184;9.722;2022-12-18T07:16:24;27.40;;;14.00;;
8187;SDS011;4135;49.184;9.722;2022-12-18T07:18:54;21.10;;;12.65;;
8187;SDS011;4135;49.184;9.722;2022-12-18T07:21:25;18.88;;;12.77;;
8187;SDS011;4135;49.184;9.722;2022-12-18T07:23:54;21.85;;;13.23;;
8187;SDS011;4135;49.184;9.722;2022-12-18T07:26:24;21.10;;;12.60;;
8187;SDS011;4135;49.184;9.722;2022-12-18T07:28:57;24.88;;;13.63;;
8187;SDS011;4135;49.184;9.722;2022-12-18T07:31:27;22.52;;;11.85;;
8187;SDS011;4135;49.184;9.722;2022-12-18T07:33:57;17.92;;;11.45;;
8187;SDS011;4135;49.184;9.722;2022-12-18T07:36:26;23.35;;;12.77;;
8187;SDS011;4135;49.184;9.722;2022-12-18T07:38:56;20.98;;;12.55;;
8187;SDS011;4135;49.184;9.722;2022-12-18T07:41:25;21.33;;;12.73;;
8187;SDS011;4135;49.184;9.722;2022-12-18T07:43:55;21.83;;;12.23;;
8187;SDS011;4135;49.184;9.722;2022-12-18T07:46:24;21.75;;;12.45;;
8187;SDS011;4135;49.184;9.722;2022-12-18T07:48:54;22.65;;;13.90;;
8187;SDS011;4135;49.184;9.722;2022-12-18T07:51:23;22.52;;;12.65;;
8187;SDS011;4135;49.184;9.722;2022-12-18T07:53:53;23.70;;;14.00;;
8187;SDS011;4135;49.184;9.722;2022-12-18T07:56:22;18.80;;;12.48;;
8187;SDS011;4135;49.184;9.722;2022-12-18T07:58:52;20.98;;;12.40;;
8187;SDS011;4135;49.184;9.722;2022-12-18T08:01:22;22.73;;;12.95;;
8187;SDS011;4135;49.184;9.722;2022-12-18T08:03:51;19.05;;;11.90;;
8187;SDS011;4135;49.184;9.722;2022-12-18T08:06:21;21.88;;;12.85;;
8187;SDS011;4135;49.184;9.722;2022-12-18T08:08:51;19.55;;;13.00;;
8187;SDS011;4135;49.184;9.722;2022-12-18T08:11:23;23.02;;;13.25;;
8187;SDS011;4135;49.184;9.722;2022-12-18T08:13:54;20.73;;;11.68;;
8187;SDS011;4135;49.184;9.722;2022-12-18T08:16:24;25.23;;;13.05;;
8187;SDS011;4135;49.184;9.722;2022-12-18T08:18:54;18.27;;;12.50;;
8187;SDS011;4135;49.184;9.722;2022-12-18T08:21:25;25.08;;;12.85;;
8187;SDS011;4135;49.184;9.722;2022-12-18T08:23:57;23.77;;;13.20;;
8187;SDS011;4135;49.184;9.722;2022-12-18T08:26:29;24.02;;;14.35;;
8187;SDS011;4135;49.184;9.722;2022-12-18T08:28:59;22.23;;;13.18;;
8187;SDS011;4135;49.184;9.722;2022-12-18T08:31:30;21.83;;;12.20;;
8187;SDS011;4135;49.184;9.722;2022-12-18T08:34:00;23.42;;;12.70;;
8187;SDS011;4135;49.184;9.722;2022-12-18T08:36:29;22.10;;;13.18;;
8187;SDS011;4135;49.184;9.722;2022-12-18T08:38:59;21.75;;;13.27;;
8187;SDS011;4135;49.184;9.722;2022-12-18T08:41:28;23.75;;;12.73;;
8187;SDS011;4135;49.184;9.722;2022-12-18T08:43:58;21.52;;;14.02;;
8187;SDS011;4135;49.184;9.722;2022-12-18T08:46:46;21.35;;;12.77;;
8187;SDS011;4135;49.184;9.722;2022-12-18T08:49:15;23.60;;;12.27;;
8187;SDS011;4135;49.184;9.722;2022-12-18T08:51:45;23.45;;;12.20;;
8187;SDS011;4135;49.184;9.722;2022-12-18T08:54:15;22.23;;;12.48;;
8187;SDS011;4135;49.184;9.722;2022-12-18T08:56:44;21.02;;;12.95;;
8187;SDS011;4135;49.184;9.722;2022-12-18T08:59:14;15.45;;;10.82;;
8187;SDS011;4135;49.184;9.722;2022-12-18T09:01:43;18.95;;;12.05;;
8187;SDS011;4135;49.184;9.722;2022-12-18T09:04:13;17.50;;;11.23;;
8187;SDS011;4135;49.184;9.722;2022-12-18T09:06:43;21.15;;;12.23;;
8187;SDS011;4135;49.184;9.722;2022-12-18T09:09:12;24.33;;;11.98;;
8187;SDS011;4135;49.184;9.722;2022-12-18T09:11:42;18.40;;;12.27;;
8187;SDS011;4135;49.184;9.722;2022-12-18T09:14:11;19.30;;;11.10;;
8187;SDS011;4135;49.184;9.722;2022-12-18T09:16:41;19.40;;;12.20;;
8187;SDS011;4135;49.184;9.722;2022-12-18T09:19:11;25.75;;;12.57;;
8187;SDS011;4135;49.184;9.722;2022-12-18T09:21:40;19.75;;;11.77;;
8187;SDS011;4135;49.184;9.722;2022-12-18T09:24:11;18.48;;;10.80;;
8187;SDS011;4135;49.184;9.722;2022-12-18T09:26:42;39.22;;;21.70;;
8187;SDS011;4135;49.184;9.722;2022-12-18T09:29:13;33.47;;;17.45;;
8187;SDS011;4135;49.184;9.722;2022-12-18T09:31:43;24.52;;;14.75;;
8187;SDS011;4135;49.184;9.722;2022-12-18T09:34:13;24.17;;;13.50;;
8187;SDS011;4135;49.184;9.722;2022-12-18T09:36:42;21.77;;;13.27;;
8187;SDS011;4135;49.184;9.722;2022-12-18T09:39:12;23.00;;;11.88;;
8187;SDS011;4135;49.184;9.722;2022-12-18T09:41:43;18.70;;;11.85;;
8187;SDS011;4135;49.184;9.722;2022-12-18T09:49:42;17.20;;;10.93;;
8187;SDS011;4135;49.184;9.722;2022-12-18T09:52:31;23.60;;;12.63;;
8187;SDS011;4135;49.184;9.722;2022-12-18T09:57:57;21.92;;;11.32;;
8187;SDS011;4135;49.184;9.722;2022-12-18T10:00:31;20.17;;;11.38;;
8187;SDS011;4135;49.184;9.722;2022-12-18T10:03:03;19.90;;;11.20;;
8187;SDS011;4135;49.184;9.722;2022-12-18T10:08:20;20.30;;;11.98;;
8187;SDS011;4135;49.184;9.722;2022-12-18T10:14:13;19.75;;;11.20;;
8187;SDS011;4135;49.184;9.722;2022-12-18T10:19:51;18.38;;;10.55;;
8187;SDS011;4135;49.184;9.722;2022-12-18T10:28:07;20.20;;;11.63;;
8187;SDS011;4135;49.184;9.722;2022-12-18T10:30:41;19.55;;;11.40;;
8187;SDS011;4135;49.184;9.722;2022-12-18T10:33:13;15.48;;;10.50;;
8187;SDS011;4135;49.184;9.722;2022-12-18T10:35:48;21.05;;;10.73;;
8187;SDS011;4135;49.184;9.722;2022-12-18T10:38:20;23.75;;;10.95;;
8187;SDS011;4135;49.184;9.722;2022-12-18T10:40:53;20.88;;;10.75;;
8187;SDS011;4135;49.184;9.722;2022-12-18T10:43:31;16.75;;;10.65;;
8187;SDS011;4135;49.184;9.722;2022-12-18T10:48:47;16.90;;;9.70;;
8187;SDS011;4135;49.184;9.722;2022-12-18T10:51:22;17.27;;;11.02;;
8187;SDS011;4135;49.184;9.722;2022-12-18T10:54:00;18.60;;;11.30;;
8187;SDS011;4135;49.184;9.722;2022-12-18T10:56:35;17.10;;;10.60;;
8187;SDS011;4135;49.184;9.722;2022-12-18T10:59:06;20.25;;;11.20;;
8187;SDS011;4135;49.184;9.722;2022-12-18T11:04:23;19.65;;;11.13;;
8187;SDS011;4135;49.184;9.722;2022-12-18T11:09:37;18.42;;;9.75;;
8187;SDS011;4135;49.184;9.722;2022-12-18T11:12:15;21.73;;;10.95;;
8187;SDS011;4135;49.184;9.722;2022-12-18T11:14:51;16.48;;;9.80;;
8187;SDS011;4135;49.184;9.722;2022-12-18T11:17:24;17.55;;;9.90;;
8187;SDS011;4135;49.184;9.722;2022-12-18T11:19:59;23.80;;;11.70;;
8187;SDS011;4135;49.184;9.722;2022-12-18T11:22:31;23.15;;;10.85;;
8187;SDS011;4135;49.184;9.722;2022-12-18T11:25:06;14.57;;;9.13;;
8187;SDS011;4135;49.184;9.722;2022-12-18T11:27:58;19.73;;;11.57;;
8187;SDS011;4135;49.184;9.722;2022-12-18T11:30:30;16.13;;;9.95;;
8187;SDS011;4135;49.184;9.722;2022-12-18T11:33:05;20.67;;;11.20;;
8187;SDS011;4135;49.184;9.722;2022-12-18T11:35:58;18.20;;;10.30;;
8187;SDS011;4135;49.184;9.722;2022-12-18T11:38:33;20.58;;;11.80;;
8187;SDS011;4135;49.184;9.722;2022-12-18T11:41:09;17.85;;;10.20;;
8187;SDS011;4135;49.184;9.722;2022-12-18T11:43:50;18.40;;;10.00;;
8187;SDS011;4135;49.184;9.722;2022-12-18T11:46:26;18.75;;;10.20;;
8187;SDS011;4135;49.184;9.722;2022-12-18T11:52:15;18.50;;;9.25;;
8187;SDS011;4135;49.184;9.722;2022-12-18T11:54:51;17.13;;;9.90;;
8187;SDS011;4135;49.184;9.722;2022-12-18T11:57:27;20.58;;;9.68;;
8187;SDS011;4135;49.184;9.722;2022-12-18T12:00:12;20.77;;;10.07;;
8187;SDS011;4135;49.184;9.722;2022-12-18T12:05:56;22.55;;;11.55;;
8187;SDS011;4135;49.184;9.722;2022-12-18T12:08:47;20.42;;;10.05;;
8187;SDS011;4135;49.184;9.722;2022-12-18T12:11:39;19.88;;;10.70;;
8187;SDS011;4135;49.184;9.722;2022-12-18T12:17:24;17.90;;;9.57;;
8187;SDS011;4135;49.184;9.722;2022-12-18T12:23:12;17.55;;;9.57;;
8187;SDS011;4135;49.184;9.722;2022-12-18T12:26:04;21.40;;;10.40;;
8187;SDS011;4135;49.184;9.722;2022-12-18T12:28:48;17.73;;;9.80;;
8187;SDS011;4135;49.184;9.722;2022-12-18T12:31:47;15.52;;;9.35;;
8187;SDS011;4135;49.184;9.722;2022-12-18T12:39:40;15.15;;;9.88;;
8187;SDS011;4135;49.184;9.722;2022-12-18T12:45:34;21.50;;;9.85;;
8187;SDS011;4135;49.184;9.722;2022-12-18T12:48:11;16.08;;;9.73;;
8187;SDS011;4135;49.184;9.722;2022-12-18T12:50:49;19.35;;;9.93;;
8187;SDS011;4135;49.184;9.722;2022-12-18T12:53:24;14.57;;;9.15;;
8187;SDS011;4135;49.184;9.722;2022-12-18T12:55:58;14.98;;;9.00;;
8187;SDS011;4135;49.184;9.722;2022-12-18T12:58:37;19.20;;;9.77;;
8187;SDS011;4135;49.184;9.722;2022-12-18T13:06:42;12.02;;;8.30;;
8187;SDS011;4135;49.184;9.722;2022-12-18T13:09:19;13.82;;;8.32;;
8187;SDS011;4135;49.184;9.722;2022-12-18T13:11:50;14.32;;;8.38;;
8187;SDS011;4135;49.184;9.722;2022-12-18T13:14:39;14.05;;;8.57;;
8187;SDS011;4135;49.184;9.722;2022-12-18T13:19:49;13.35;;;8.55;;
8187;SDS011;4135;49.184;9.722;2022-12-18T13:22:42;13.57;;;8.30;;
8187;SDS011;4135;49.184;9.722;2022-12-18T13:25:29;15.73;;;8.25;;
8187;SDS011;4135;49.184;9.722;2022-12-18T13:28:08;10.85;;;7.38;;
8187;SDS011;4135;49.184;9.722;2022-12-18T13:33:35;13.65;;;8.55;;
8187;SDS011;4135;49.184;9.722;2022-12-18T13:38:43;13.23;;;8.32;;
8187;SDS011;4135;49.184;9.722;2022-12-18T13:44:10;16.58;;;8.57;;
8187;SDS011;4135;49.184;9.722;2022-12-18T13:46:45;15.48;;;8.93;;
8187;SDS011;4135;49.184;9.722;2022-12-18T13:52:17;13.88;;;9.02;;
8187;SDS011;4135;49.184;9.722;2022-12-18T13:54:51;14.63;;;8.70;;
8187;SDS011;4135;49.184;9.722;2022-12-18T13:57:30;16.38;;;8.27;;
8187;SDS011;4135;49.184;9.722;2022-12-18T14:02:45;14.30;;;7.78;;
8187;SDS011;4135;49.184;9.722;2022-12-18T14:05:28;14.18;;;8.45;;
8187;SDS011;4135;49.184;9.722;2022-12-18T14:08:00;15.05;;;9.00;;
8187;SDS011;4135;49.184;9.722;2022-12-18T14:10:42;34.40;;;14.85;;
8187;SDS011;4135;49.184;9.722;2022-12-18T14:13:35;34.33;;;15.93;;
8187;SDS011;4135;49.184;9.722;2022-12-18T14:16:11;30.45;;;17.23;;
8187;SDS011;4135;49.184;9.722;2022-12-18T14:21:27;35.00;;;17.60;;
8187;SDS011;4135;49.184;9.722;2022-12-18T14:24:17;32.63;;;17.55;;
8187;SDS011;4135;49.184;9.722;2022-12-18T14:26:48;30.65;;;17.65;;
8187;SDS011;4135;49.184;9.722;2022-12-18T14:29:26;31.38;;;17.83;;
8187;SDS011;4135;49.184;9.722;2022-12-18T14:32:14;27.05;;;17.42;;
8187;SDS011;4135;49.184;9.722;2022-12-18T14:34:47;32.08;;;17.80;;
8187;SDS011;4135;49.184;9.722;2022-12-18T14:37:23;30.33;;;17.88;;
8187;SDS011;4135;49.184;9.722;2022-12-18T14:39:58;28.75;;;17.67;;
8187;SDS011;4135;49.184;9.722;2022-12-18T14:42:33;35.03;;;19.17;;
8187;SDS011;4135;49.184;9.722;2022-12-18T14:48:07;33.65;;;18.17;;
8187;SDS011;4135;49.184;9.722;2022-12-18T14:50:43;34.75;;;18.58;;
8187;SDS011;4135;49.184;9.722;2022-12-18T14:53:20;28.98;;;17.25;;
8187;SDS011;4135;49.184;9.722;2022-12-18T14:55:57;28.83;;;17.85;;
8187;SDS011;4135;49.184;9.722;2022-12-18T14:58:27;29.60;;;17.75;;
8187;SDS011;4135;49.184;9.722;2022-12-18T15:00:57;29.88;;;16.63;;
8187;SDS011;4135;49.184;9.722;2022-12-18T15:03:26;32.47;;;16.88;;
8187;SDS011;4135;49.184;9.722;2022-12-18T15:05:56;31.70;;;18.23;;
8187;SDS011;4135;49.184;9.722;2022-12-18T15:08:44;35.47;;;18.70;;
8187;SDS011;4135;49.184;9.722;2022-12-18T15:13:58;24.77;;;16.15;;
8187;SDS011;4135;49.184;9.722;2022-12-18T15:16:29;33.05;;;18.42;;
8187;SDS011;4135;49.184;9.722;2022-12-18T15:18:59;31.08;;;15.95;;
8187;SDS011;4135;49.184;9.722;2022-12-18T15:21:29;24.50;;;14.02;;
8187;SDS011;4135;49.184;9.722;2022-12-18T15:24:00;21.55;;;12.10;;
8187;SDS011;4135;49.184;9.722;2022-12-18T15:26:30;18.75;;;10.50;;
8187;SDS011;4135;49.184;9.722;2022-12-18T15:29:15;19.13;;;10.57;;
8187;SDS011;4135;49.184;9.722;2022-12-18T15:31:59;18.13;;;10.73;;
8187;SDS011;4135;49.184;9.722;2022-12-18T15:34:30;17.67;;;9.63;;
8187;SDS011;4135;49.184;9.722;2022-12-18T15:37:00;15.48;;;9.13;;
8187;SDS011;4135;49.184;9.722;2022-12-18T15:39:30;14.88;;;8.80;;
8187;SDS011;4135;49.184;9.722;2022-12-18T15:42:00;13.65;;;8.48;;
8187;SDS011;4135;49.184;9.722;2022-12-18T15:44:49;20.20;;;9.02;;
8187;SDS011;4135;49.184;9.722;2022-12-18T15:47:18;17.92;;;9.70;;
8187;SDS011;4135;49.184;9.722;2022-12-18T15:49:48;15.63;;;9.23;;
8187;SDS011;4135;49.184;9.722;2022-12-18T15:52:17;12.27;;;8.27;;
8187;SDS011;4135;49.184;9.722;2022-12-18T15:54:54;13.90;;;8.38;;
8187;SDS011;4135;49.184;9.722;2022-12-18T15:57:43;12.95;;;7.68;;
8187;SDS011;4135;49.184;9.722;2022-12-18T16:00:12;12.43;;;7.75;;
8187;SDS011;4135;49.184;9.722;2022-12-18T16:02:42;9.88;;;7.18;;
8187;SDS011;4135;49.184;9.722;2022-12-18T16:05:15;11.82;;;7.63;;
8187;SDS011;4135;49.184;9.722;2022-12-18T16:07:46;13.65;;;8.48;;
8187;SDS011;4135;49.184;9.722;2022-12-18T16:10:16;15.88;;;8.70;;
8187;SDS011;4135;49.184;9.722;2022-12-18T16:12:46;13.68;;;8.40;;
8187;SDS011;4135;49.184;9.722;2022-12-18T16:15:16;17.70;;;8.38;;
8187;SDS011;4135;49.184;9.722;2022-12-18T16:17:46;12.90;;;7.60;;
8187;SDS011;4135;49.184;9.722;2022-12-18T16:20:18;15.68;;;8.10;;
8187;SDS011;4135;49.184;9.722;2022-12-18T16:22:49;14.68;;;8.27;;
8187;SDS011;4135;49.184;9.722;2022-12-18T16:25:23;16.20;;;8.57;;
8187;SDS011;4135;49.184;9.722;2022-12-18T16:27:54;13.57;;;7.53;;
8187;SDS011;4135;49.184;9.722;2022-12-18T16:30:25;12.77;;;7.53;;
8187;SDS011;4135;49.184;9.722;2022-12-18T16:32:57;11.10;;;6.85;;
8187;SDS011;4135;49.184;9.722;2022-12-18T16:35:27;12.18;;;8.10;;
8187;SDS011;4135;49.184;9.722;2022-12-18T16:37:57;11.30;;;7.60;;
8187;SDS011;4135;49.184;9.722;2022-12-18T16:40:26;15.32;;;8.02;;
8187;SDS011;4135;49.184;9.722;2022-12-18T16:42:56;13.85;;;8.05;;
8187;SDS011;4135;49.184;9.722;2022-12-18T16:45:25;15.35;;;8.48;;
8187;SDS011;4135;49.184;9.722;2022-12-18T16:47:55;12.38;;;7.65;;
8187;SDS011;4135;49.184;9.722;2022-12-18T16:50:24;11.75;;;8.15;;
8187;SDS011;4135;49.184;9.722;2022-12-18T16:52:54;10.88;;;7.32;;
8187;SDS011;4135;49.184;9.722;2022-12-18T16:55:23;15.77;;;8.32;;
8187;SDS011;4135;49.184;9.722;2022-12-18T16:57:53;13.65;;;7.50;;
8187;SDS011;4135;49.184;9.722;2022-12-18T17:00:22;12.20;;;8.77;;
8187;SDS011;4135;49.184;9.722;2022-12-18T17:02:52;14.77;;;8.30;;
8187;SDS011;4135;49.184;9.722;2022-12-18T17:05:22;14.45;;;7.65;;
8187;SDS011;4135;49.184;9.722;2022-12-18T17:07:52;13.43;;;8.05;;
8187;SDS011;4135;49.184;9.722;2022-12-18T17:10:21;10.27;;;6.95;;
8187;SDS011;4135;49.184;9.722;2022-12-18T17:12:51;11.98;;;7.40;;
8187;SDS011;4135;49.184;9.722;2022-12-18T17:15:20;10.57;;;6.80;;
8187;SDS011;4135;49.184;9.722;2022-12-18T17:17:50;14.85;;;8.02;;
8187;SDS011;4135;49.184;9.722;2022-12-18T17:20:19;13.20;;;7.78;;
8187;SDS011;4135;49.184;9.722;2022-12-18T17:22:49;13.80;;;8.30;;
8187;SDS011;4135;49.184;9.722;2022-12-18T17:25:18;15.07;;;8.30;;
8187;SDS011;4135;49.184;9.722;2022-12-18T17:27:49;14.52;;;8.55;;
8187;SDS011;4135;49.184;9.722;2022-12-18T17:30:19;18.25;;;8.18;;
8187;SDS011;4135;49.184;9.722;2022-12-18T17:32:48;11.20;;;7.35;;